Weather observations for the past three days for
Olney-Noble Airport
Metric (Imperial)
Date Time (cdt) Wind (kph) Vis. (km) Weather Sky Cond. Temperature (ºC) Relative Humidity Wind Chill (°C) Heat Index (°C) Pressure Precipitation (cm)
Air Dwpt 6 hour altimeter (cm) sea level (mb) 1 hr 3 hr 6 hr
Max. Min.
08 12:35 S 15 G 26 16.09 Mostly Cloudy BKN110 21.2 10.1 49% 75.9 0.0
08 12:15 S 17 G 26 16.09 Fair CLR 20.7 10.5 52% 75.95 0.0
08 11:55 SW 17 G 26 16.09 Partly Cloudy SCT100 20.7 10.4 52% 75.97 0.0
08 11:35 S 19 G 31 16.09 Partly Cloudy SCT100 20.3 9.8 51% 76 0.0
08 11:15 SW 13 G 35 16.09 Fair CLR 20.2 10.2 53% 76.02 0.0
08 10:55 SW 15 G 31 16.09 Fair CLR 19.6 9.3 52% 76.02 0.0
08 10:35 S 19 G 28 16.09 Fair CLR 19.1 9.5 54% 76.02 0.0
08 10:15 S 17 G 26 16.09 Fair CLR 18.2 9.4 57% 76.05 0.0
08 09:55 S 13 16.09 Partly Cloudy SCT100 17.1 9 59% 76.07 0.0
08 09:35 S 15 16.09 Overcast OVC095 16.3 8.6 61% 76.07 0.0
08 09:15 S 13 16.09 Overcast OVC095 15.5 8.2 62% 76.07 0.0
08 08:55 S 11 16.09 Overcast OVC095 15.2 7.5 60% 76.1 0.0
08 08:35 S 11 16.09 Overcast OVC095 14.5 6.9 61% 76.12 0.0
08 08:15 S 11 16.09 Partly Cloudy SCT095 14.5 6.7 60% 76.12 0.0
08 07:55 S 9 16.09 Mostly Cloudy BKN095 13.8 6.1 60% 76.1 0.0
08 07:35 SW 11 16.09 Mostly Cloudy BKN095 13.2 5.6 60% 76.1 0.0
08 07:15 S 9 16.09 Fair CLR 12.4 5 61% 76.1 0.0
08 06:55 S 11 16.09 Fair CLR 11.8 4.6 11.8 9.6 62% 76.1 0.0
08 06:35 SW 9 16.09 Fair CLR 11.1 4.4 64% 76.1 0.0
08 06:15 S 9 16.09 Fair CLR 10.4 4.2 66% 76.07 0.0
08 05:55 S 7 16.09 Fair CLR 10 4.2 68% 9 76.07 0.0
08 05:35 S 7 16.09 Fair CLR 10.2 4.1 66% 76.07 0.0
08 05:15 S 7 16.09 Fair CLR 9.8 4.4 69% 9 76.07 0.0
08 04:55 S 7 16.09 Fair CLR 9.9 4.3 68% 9 76.07 0.0
08 04:35 S 9 16.09 Fair CLR 9.9 4.3 68% 9 76.07 0.0
08 04:15 S 11 16.09 Fair CLR 9.6 4.5 71% 8 76.07 0.0
08 03:55 S 9 16.09 Fair CLR 10 4.4 68% 9 76.07 0.0
08 03:35 S 11 16.09 Fair CLR 9.7 4.5 70% 8 76.1 0.0
08 03:15 S 9 16.09 Fair CLR 10 4.5 69% 9 76.1 0.0
08 02:55 S 9 16.09 Fair CLR 10.6 4.1 64% 76.12 0.0
08 02:35 S 6 16.09 Fair CLR 10.9 3.9 62% 76.12 0.0
08 02:15 S 9 16.09 Fair CLR 11 4.1 63% 76.12 0.0
08 01:55 S 11 16.09 Fair CLR 11 4.1 63% 76.15 0.0
08 01:35 S 11 16.09 Fair CLR 11.5 3.9 60% 76.15 0.0
08 01:15 S 9 16.09 Fair CLR 11.6 3.8 59% 76.15 0.0
08 00:55 S 9 16.09 Fair CLR 11.8 3.7 16.8 11.6 58% 76.17 0.0
08 00:15 S 11 16.09 Fair CLR 12 3.9 58% 76.17 0.0
07 23:55 S 11 16.09 Fair CLR 11.8 4.6 62% 76.17 0.0
07 23:35 S 9 16.09 Fair CLR 12.1 4.6 60% 76.17 0.0
07 23:15 S 7 16.09 Fair CLR 11.8 5 63% 76.15 0.0
07 22:55 S 9 16.09 Fair CLR 11.7 5.4 66% 76.15 0.0
07 22:15 S 9 16.09 Fair CLR 12.1 5.5 64% 76.15 0.0
07 21:55 S 7 16.09 Fair CLR 12 5.5 65% 76.15 0.0
07 21:35 S 6 16.09 Fair CLR 12.2 5.9 66% 76.15 0.0
07 21:15 S 6 16.09 Fair CLR 12.5 5.5 63% 76.15 0.0
07 20:55 S 7 16.09 Fair CLR 13 5.4 60% 76.12 0.0
07 20:35 S 7 16.09 Fair CLR 13.5 5.8 60% 76.1 0.0
07 20:15 S 6 16.09 Fair CLR 14 5.2 56% 76.1 0.0
07 19:55 S 7 16.09 Fair CLR 15 4.8 51% 76.07 0.0
07 19:35 S 6 16.09 Fair CLR 15.8 3.6 44% 76.07 0.0
07 19:15 SW 6 16.09 Fair CLR 16.5 2.9 40% 76.07 0.0
07 18:55 S 9 16.09 Fair CLR 16.9 2.5 18.1 15.6 38% 76.07 0.0
07 18:35 SW 9 16.09 Fair CLR 17.2 2.1 36% 76.07 0.0
07 18:15 S 9 16.09 Fair CLR 17.5 2.7 37% 76.1 0.0
07 17:55 SW 9 16.09 Fair CLR 17.5 2.3 36% 76.1 0.0
07 17:35 W 7 16.09 Fair CLR 17.7 2.2 36% 76.12 0.0
07 17:15 SW 7 16.09 Partly Cloudy SCT075 17.7 1.5 34% 76.12 0.0
07 16:55 SW 7 16.09 Partly Cloudy SCT075 18 2 34% 76.12 0.0
07 16:35 W 17 16.09 Partly Cloudy SCT075 17.7 2.5 36% 76.15 0.0
07 16:15 SW 9 16.09 Partly Cloudy SCT075 17.8 1.8 34% 76.15 0.0
07 15:55 SW 13 16.09 Fair CLR 17.6 1.8 35% 76.15 0.0
07 15:35 W 9 16.09 Fair CLR 17.3 1.3 34% 76.15 0.0
07 14:55 SW 6 16.09 Partly Cloudy SCT075 16.6 1.4 36% 76.2 0.0
07 14:35 W 11 16.09 Partly Cloudy SCT075 17.3 2.1 36% 76.2 0.0
07 14:15 Calm 16.09 Fair CLR 16.5 1 35% 76.23 0.0
07 13:55 W 11 16.09 Fair CLR 16.8 2 37% 76.25 0.0
07 13:35 W 15 16.09 Fair CLR 16.4 1.9 38% 76.25 0.0
07 13:15 SW 9 16.09 Fair CLR 16 0.8 36% 76.28 0.0
07 12:55 N 6 16.09 Fair CLR 15.6 0.5 15.8 6.1 36% 76.28 0.0
07 12:35 NW 11 16.09 Fair CLR 15.6 1.4 38% 76.3 0.0
07 12:15 W 7 16.09 Fair CLR 15.3 0.5 37% 76.3 0.0
07 11:55 S 6 16.09 Fair CLR 14.8 0.1 37% 76.33 0.0
07 11:35 SW 11 16.09 Fair CLR 14.9 1 39% 76.33 0.0
07 11:15 SW 7 16.09 Fair CLR 14.6 0.3 38% 76.35 0.0
07 10:55 SW 7 16.09 Fair CLR 14.5 1.6 42% 76.35 0.0
07 10:35 W 6 16.09 Fair CLR 14.1 2.4 45% 76.35 0.0
07 10:15 Calm 16.09 Fair CLR 13.5 -0.1 40% 76.35 0.0
07 09:55 Calm 16.09 Fair CLR 13 0.9 44% 76.38 0.0
07 09:35 S 7 16.09 Fair CLR 13 4.1 55% 76.38 0.0
07 09:15 S 6 16.09 Fair CLR 11.8 4.4 61% 76.38 0.0
07 08:55 S 6 16.09 Fair CLR 11.1 4.2 63% 76.38 0.0
07 08:35 Calm 16.09 Fair CLR 10.5 3.6 63% 76.35 0.0
07 08:15 Calm 16.09 Fair CLR 9.9 3.6 65% 76.35 0.0
07 07:55 Calm 16.09 Fair CLR 9.3 4.9 74% 76.35 0.0
07 07:35 Calm 16.09 Fair CLR 8.2 5.7 84% 76.35 0.0
07 07:15 Calm 16.09 Fair CLR 7.1 6.3 95% 76.33 0.0
07 06:55 Calm 16.09 Fair CLR 6 6 9 4.5 100% 76.33 0.0
07 06:35 Calm 16.09 Fair CLR 5.3 5.3 100% 76.33 0.0
07 06:15 Calm 16.09 Fair CLR 4.7 4.7 100% 76.3 0.0
07 05:55 Calm 16.09 Fair CLR 4.6 4.6 100% 76.3 0.0
07 05:35 Calm 16.09 Fair CLR 4.6 4.6 100% 76.3 0.0
07 05:15 Calm 16.09 Fair CLR 4.8 4.6 99% 76.3 0.0
07 04:55 Calm 16.09 Fair CLR 4.9 4.7 99% 76.33 0.0
07 04:35 Calm 16.09 Fair CLR 5.3 4.3 93% 76.33 0.0
07 04:15 Calm 16.09 Fair CLR 5.5 4.2 91% 76.33 0.0
07 03:55 Calm 16.09 Fair CLR 5.7 3.8 88% 76.33 0.0
07 03:35 Calm 16.09 Fair CLR 6.2 3.1 81% 76.3 0.0
07 03:15 Calm 16.09 Fair CLR 7.5 2.1 69% 76.3 0.0
07 02:55 N 6 16.09 Fair CLR 7.8 2.2 68% 76.3 0.0
07 02:35 N 6 16.09 Fair CLR 8 2.2 67% 76.28 0.0
07 02:15 N 6 16.09 Fair CLR 8.2 2.4 67% 76.28 0.0
07 01:55 N 7 16.09 Fair CLR 8.6 2.5 66% 8 76.28 0.0
07 01:35 N 9 16.09 Fair CLR 8.8 2.6 65% 8 76.3 0.0
07 01:15 N 6 16.09 Fair CLR 8 4.8 80% 76.3 0.0
07 00:55 N 6 16.09 Fair CLR 8.9 3.9 14.7 8.1 71% 76.3 0.0
07 00:35 N 6 16.09 Fair CLR 8.2 5.1 81% 76.3 0.0
06 23:55 N 6 16.09 Fair CLR 9.1 4.8 75% 76.28 0.0
06 23:35 N 6 16.09 Fair CLR 9.1 5.5 78% 76.28 0.0
06 23:15 Calm 16.09 Fair CLR 9.2 5.9 80% 76.28 0.0
06 22:55 N 6 16.09 Fair CLR 9.5 6.2 80% 76.28 0.0
06 22:35 NW 6 16.09 Fair CLR 10.3 5.5 72% 76.28 0.0
06 22:15 NW 6 16.09 Fair CLR 10.1 6.5 79% 76.28 0.0
06 21:55 Calm 16.09 Fair CLR 9.5 8.3 92% 76.28 0.0
06 21:35 Calm 16.09 Fair CLR 9.5 7.1 85% 76.28 0.0
06 21:15 Calm 16.09 Fair CLR 10.1 6.3 77% 76.25 0.0
06 20:55 Calm 16.09 Fair CLR 11.5 4.5 62% 76.23 0.0
06 20:35 Calm 16.09 Fair CLR 11.8 4.8 62% 76.2 0.0
06 20:15 N 7 16.09 Fair CLR 12.5 4.5 58% 76.2 0.0
06 19:55 N 9 16.09 Fair CLR 13.1 3.9 54% 76.2 0.0
06 19:35 N 7 16.09 Fair CLR 13.7 4.8 55% 76.2 0.0
06 19:15 N 9 16.09 Partly Cloudy SCT060 14.1 4.3 52% 76.17 0.0
06 18:55 N 13 16.09 Partly Cloudy SCT060 14.7 4.3 16 13 50% 76.15 0.0
06 18:35 N 9 16.09 Partly Cloudy SCT048 SCT060 14.9 5 52% 76.15 0.0
06 18:15 NW 17 16.09 Fair CLR 15.1 5.5 53% 76.15 0.0
06 17:55 NW 17 16.09 Partly Cloudy SCT065 15.2 5.4 52% 76.15 0.0
06 17:35 NW 19 G 30 16.09 Mostly Cloudy BKN065 15.2 6.5 56% 76.15 0.0
06 17:15 NW 11 16.09 Mostly Cloudy BKN075 15.2 6.9 58% 76.17 0.0
06 16:55 NW 9 16.09 Overcast BKN055 OVC075 15.3 6.8 57% 76.17 0.0
06 16:35 NW 17 16.09 Overcast SCT043 OVC055 14.5 6.1 57% 76.17 0.0
06 16:15 NW 19 16.09 Mostly Cloudy BKN043 BKN055 BKN070 14.8 5.9 55% 76.17 0.0
06 15:55 NW 11 16.09 Mostly Cloudy SCT043 SCT050 BKN065 15.2 6.7 57% 76.2 0.0
06 15:35 Calm 16.09 Mostly Cloudy SCT043 SCT050 BKN055 15.5 6.7 56% 76.2 0.0
06 15:15 NW 9 16.09 Mostly Cloudy SCT039 BKN090 15.1 6.4 56% 76.2 0.0
06 14:55 NW 11 16.09 Mostly Cloudy BKN090 15.1 6.4 56% 76.2 0.0
06 14:35 NW 13 16.09 Mostly Cloudy SCT032 SCT075 BKN090 14.8 7.6 62% 76.17 0.0
06 14:15 NW 15 16.09 Overcast SCT030 OVC075 14.1 6.8 62% 76.2 0.0
06 13:55 W 15 16.09 Overcast BKN030 BKN075 OVC090 14.2 7.5 64% 76.2 0.0
06 13:35 NW 9 16.09 Overcast SCT030 BKN075 OVC090 13.7 7.2 65% 76.2 0.0
06 13:15 NW 9 16.09 Overcast SCT024 OVC075 13.2 7.3 68% 76.23 0.0
06 12:55 W 11 11.27 Overcast OVC075 12.9 7.6 13.1 8.6 70% 76.23 0.0
06 12:35 NW 9 16.09 Overcast OVC075 12.9 7.7 71% 76.2 0.0
06 12:15 NW 11 16.09 Overcast SCT021 OVC075 12.6 7.4 71% 76.23 0.0
06 11:55 W 9 16.09 Overcast SCT021 OVC075 12.9 8 72% 76.23 0.0
06 11:35 NW 11 16.09 Overcast SCT019 BKN075 OVC090 12.7 7.3 70% 76.2 0.0
06 11:15 NW 7 16.09 Overcast BKN075 OVC090 12.3 7.6 73% 76.2 0.0
06 10:55 W 7 16.09 Overcast OVC075 11.6 7.5 76% 76.2 0.0
06 10:35 W 9 16.09 Overcast OVC075 11.5 7.2 75% 76.23 0.0
06 10:15 NW 9 16.09 Overcast OVC075 11.3 6.8 74% 76.2 0.0
06 09:55 W 7 16.09 Overcast SCT070 OVC085 11.3 7.4 77% 76.15 0.0
06 09:35 NW 11 16.09 Overcast BKN070 OVC085 11 7.1 77% 76.17 0.0
06 09:15 NW 9 16.09 Overcast OVC070 11 7.6 80% 76.15 0.0
06 08:55 NW 11 16.09 Overcast BKN070 OVC100 10.5 7.8 84% 76.12 0.0
06 08:35 NW 17 16.09 Overcast OVC100 10.1 8.1 88% 76.12 0.0
06 08:15 NW 7 16.09 Overcast OVC100 9.4 8.1 92% 9 76.07 0.0
06 07:55 NW 11 16.09 Overcast OVC090 9.1 8 93% 8 76.1 0.0
06 07:35 NW 11 16.09 Overcast OVC100 9 8.2 95% 8 76.1 0.0
06 07:15 NW 7 16.09 Overcast OVC100 8.9 8.3 96% 8 76.05 0.0
06 06:55 NW 7 16.09 Overcast OVC110 8.6 8.2 8.6 7.9 97% 8 76.02 0.0 0.03
06 06:35 NW 7 16.09 Overcast BKN100 OVC120 8.5 8.5 100% 8 76.02 0.0
06 06:15 NW 6 16.09 Overcast OVC100 8.5 8.5 100% 76.02 0.0
06 05:55 W 9 16.09 Mostly Cloudy BKN100 8.3 8.3 100% 7 76.02 0.0
06 05:35 W 9 16.09 Mostly Cloudy BKN110 8.3 8.3 100% 7 76 0.0
06 05:15 NW 11 16.09 Overcast OVC110 8.5 8.5 100% 7 75.95 0.0
06 04:55 W 9 16.09 Overcast OVC110 8.5 8.5 100% 7 75.95 0.0
06 04:35 W 9 16.09 Overcast SCT055 OVC110 8.5 8.5 100% 7 75.95 0.0
06 04:15 W 7 16.09 Overcast BKN055 OVC110 8.4 8.4 100% 8 75.95 0.0
06 03:55 NW 7 16.09 Overcast SCT055 OVC110 8.3 8.3 100% 7 75.9 0.0 0.03
06 03:35 NW 7 16.09 Overcast SCT055 OVC110 8.2 8.2 100% 7 75.87 0.0
06 03:15 NW 9 16.09 Overcast OVC055 8.2 8.2 100% 7 75.9 0.0
06 02:55 NW 9 16.09 Overcast SCT006 OVC055 8.2 8.2 100% 7 75.9 0.0
06 02:35 NW 7 16.09 Overcast BKN055 BKN090 OVC110 8.2 8.2 100% 7 75.87 0.0
06 02:15 NW 9 16.09 Overcast SCT055 OVC100 8.1 8.1 100% 7 75.9 0.0
06 01:55 Calm 16.09 Overcast OVC110 8 8 100% 75.87 0.0 0.03
06 01:35 N 7 16.09 Overcast OVC100 8 8 100% 7 75.87 0.0
06 01:15 Calm 16.09 Overcast OVC110 8 7.9 99% 75.87 0.0
06 00:55 N 6 16.09 Mostly Cloudy SCT041 SCT070 BKN100 8 7.8 9.4 7.8 99% 75.87 0.0 0.13 2.44
06 00:35 N 9 16.09 Overcast BKN041 OVC065 8 7.6 97% 7 75.9 0.0 0.1
06 00:15 N 7 11.27 Overcast BKN041 BKN065 OVC100 7.8 7.6 99% 7 75.92 0.0 0.08
05 23:55 N 13 6.44 Overcast BKN040 BKN055 OVC070 7.8 7.1 95% 6 75.87 0.0 0.15
05 23:35 N 11 8.05 Overcast SCT035 BKN070 OVC090 8 6.9 93% 6 75.9 0.0 0.08
05 23:15 N 17 16.09 Overcast SCT033 BKN070 OVC085 8 7.5 97% 6 75.84 0.0 0.03
05 22:55 N 15 G 26 16.09 Overcast SCT022 SCT028 OVC070 8 7.5 97% 6 75.84 0.0 0.15
05 22:35 N 20 G 28 11.27 Overcast SCT010 BKN014 OVC022 8.5 8.5 100% 6 75.87 0.0 0.13
05 22:15 N 17 G 26 11.27 Overcast BKN008 OVC013 8.8 8.8 100% 7 75.87 0.0 0.08
05 21:55 N 13 8.05 Overcast SCT007 BKN014 OVC024 9.3 9.3 100% 8 75.82 0.0 0.46 2.01
05 21:35 N 11 11.27 Overcast SCT009 BKN022 OVC070 9.1 9.1 100% 8 75.79 0.0 0.33
05 21:15 NE 13 6.44 Overcast SCT008 BKN049 OVC055 9.1 9.1 100% 7 75.74 0.0 0.2
05 20:55 NW 15 11.27 Overcast BKN008 BKN025 OVC049 9 9 100% 7 75.82 0.0 0.58
05 20:35 N 13 0.00 Overcast BKN006 OVC024 9 9 100% 7 75.77 0.0 0.53
05 20:15 NW 17 8.05 Thunderstorm in Vicinity BKN006 OVC013 9.2 9.2 100% 7 75.77 0.0 0.28
05 19:55 N 9 4.83 Thunderstorm in Vicinity BKN006 OVC024 9.2 9.2 100% 8 75.69 0.0 0.94
05 19:35 N 11 4.02 Overcast BKN007 BKN023 OVC035 9.2 9.2 100% 8 75.69 0.0 0.48
05 18:55 N 11 16.09 Overcast SCT017 BKN025 OVC041 9.3 9.2 12.6 9.2 99% 8 75.64 0.0 0.08 1.22
05 18:35 N 15 16.09 Overcast SCT009 BKN023 OVC039 9.3 9.3 100% 7 75.67 0.0 0.08
05 18:15 N 15 8.05 Overcast BKN007 BKN015 OVC023 9.5 9.5 100% 8 75.69 0.0 0.05
05 17:55 N 13 4.83 Overcast OVC007 10.1 10.1 100% 75.69 0.0 0.58
05 17:35 N 9 3.22 Thunderstorm OVC009 10.1 10.1 100% 75.67 0.0 0.46
05 17:15 N 9 4.83 Overcast BKN007 OVC015 10 10 100% 9 75.69 0.0 0.13
05 16:55 N 11 4.83 Overcast BKN007 BKN011 OVC034 9.9 9.9 100% 9 75.69 0.0 0.38
05 16:35 N 11 3.22 Overcast SCT007 BKN019 OVC033 10 10 100% 9 75.69 0.0 0.1
05 16:15 N 17 G 26 8.05 Overcast SCT019 OVC033 10.2 9.7 97% 75.69 0.0
05 15:55 N 19 G 31 6.44 Overcast SCT009 SCT012 OVC019 10.5 10.2 98% 75.69 0.0 0.08 0.18
05 15:35 N 17 G 26 6.44 Overcast OVC017 11 10.3 96% 75.69 0.0 0.05
05 15:15 N 17 11.27 Overcast OVC014 11 11 100% 75.69 0.0 0.03
05 14:55 N 17 6.44 Overcast OVC012 11.2 11.1 99% 75.69 0.0 0.1
05 14:35 N 17 8.05 Overcast OVC007 11.5 11.5 100% 75.69 0.0 0.03
05 14:15 N 13 4.83 Overcast OVC005 11.9 11.9 100% 75.69 0.0
05 13:55 N 9 4.02 Overcast OVC007 12 12 100% 75.67 0.0
05 13:35 N 11 2.82 Overcast OVC007 12.1 12.1 100% 75.69 0.0
05 13:15 N 9 8.05 Overcast OVC007 12.3 12.1 99% 75.69 0.0
05 12:55 N 9 11.27 Overcast OVC009 12.6 12.1 15.6 11 97% 75.69 0.0 0.64
Date Time (cdt) Wind (kph) Vis. (km) Weather Sky Cond. Air Dwpt Max. Min. Relative Humidity Wind Chill (°C) Heat Index (°C) altimeter (cm) sea level (mb) 1 hr 3 hr 6 hr
6 hour
Temperature (ºC) Pressure Precipitation (cm)